createdAt,value
2017-11-04T00:00:33.999Z,0
2017-11-04T00:01:35.419Z,0
2017-11-04T00:02:36.838Z,0
2017-11-04T00:03:38.254Z,0
2017-11-04T00:04:39.671Z,0
2017-11-04T00:05:41.123Z,0
2017-11-04T00:06:42.539Z,0
2017-11-04T00:07:43.971Z,0
2017-11-04T00:08:45.385Z,0
2017-11-04T00:09:46.802Z,0
2017-11-04T00:10:48.220Z,0
2017-11-04T00:11:49.644Z,0
2017-11-04T00:12:51.050Z,0
2017-11-04T00:13:52.466Z,0
2017-11-04T00:14:53.882Z,0
2017-11-04T00:15:55.298Z,0
2017-11-04T00:16:56.710Z,0
2017-11-04T00:17:58.128Z,0
2017-11-04T00:18:59.542Z,0
2017-11-04T00:20:00.958Z,0
2017-11-04T00:21:02.375Z,0
2017-11-04T00:22:03.790Z,0
2017-11-04T00:23:05.197Z,0
2017-11-04T00:24:06.626Z,0
2017-11-04T00:25:08.050Z,0
2017-11-04T00:26:09.460Z,0
2017-11-04T00:27:10.870Z,0
2017-11-04T00:28:12.284Z,0
2017-11-04T00:29:13.698Z,0
2017-11-04T00:30:15.113Z,0
2017-11-04T00:31:16.531Z,0
2017-11-04T00:32:17.945Z,0
2017-11-04T00:33:19.360Z,0
2017-11-04T00:34:20.776Z,0
2017-11-04T00:35:22.195Z,0
2017-11-04T00:36:23.617Z,0
2017-11-04T00:37:25.042Z,0
2017-11-04T00:38:26.452Z,0
2017-11-04T00:39:27.866Z,0
2017-11-04T00:40:29.283Z,0
2017-11-04T00:41:30.698Z,0
2017-11-04T00:42:32.131Z,0
2017-11-04T00:43:33.529Z,0
2017-11-04T00:44:34.946Z,0
2017-11-04T00:45:36.358Z,0
2017-11-04T00:46:37.775Z,0
2017-11-04T00:47:39.195Z,0
2017-11-04T00:48:40.611Z,0
2017-11-04T00:49:42.028Z,0
2017-11-04T00:50:43.445Z,0
2017-11-04T00:51:44.856Z,0
2017-11-04T00:52:46.273Z,0
2017-11-04T00:53:47.687Z,0
2017-11-04T00:54:49.102Z,0
2017-11-04T00:55:50.516Z,0
2017-11-04T00:56:51.934Z,0
2017-11-04T00:57:53.359Z,0
2017-11-04T00:58:54.770Z,0
2017-11-04T00:59:56.187Z,0
2017-11-04T01:00:57.603Z,0
2017-11-04T01:01:59.022Z,0
2017-11-04T01:03:00.442Z,0
2017-11-04T01:04:01.858Z,0
2017-11-04T01:05:03.272Z,0
2017-11-04T01:06:04.688Z,0
2017-11-04T01:07:06.104Z,0
2017-11-04T01:08:07.527Z,0
2017-11-04T01:09:08.934Z,0
2017-11-04T01:10:10.351Z,0
2017-11-04T01:11:11.766Z,0
2017-11-04T01:12:13.182Z,0
2017-11-04T01:13:14.598Z,0
2017-11-04T01:14:16.024Z,0
2017-11-04T01:15:17.446Z,0
2017-11-04T01:16:18.862Z,0
2017-11-04T01:17:20.281Z,0
2017-11-04T01:18:21.696Z,0
2017-11-04T01:19:23.111Z,0
2017-11-04T01:20:24.525Z,0
2017-11-04T01:21:25.940Z,0
2017-11-04T01:22:27.357Z,0
2017-11-04T01:23:28.773Z,0
2017-11-04T01:24:30.193Z,0
2017-11-04T01:25:31.610Z,0
2017-11-04T01:26:33.024Z,0
2017-11-04T01:27:34.438Z,0
2017-11-04T01:28:35.855Z,0
2017-11-04T01:29:37.290Z,0
2017-11-04T01:30:38.707Z,0
2017-11-04T01:31:40.127Z,0
2017-11-04T01:32:41.541Z,0
2017-11-04T01:33:42.959Z,0
2017-11-04T01:34:44.384Z,0
2017-11-04T01:35:45.788Z,0
2017-11-04T01:36:47.203Z,0
2017-11-04T01:37:48.624Z,0
2017-11-04T01:38:50.037Z,0
2017-11-04T01:39:51.452Z,0
2017-11-04T01:40:52.867Z,0
2017-11-04T01:41:54.286Z,0
2017-11-04T01:42:55.700Z,0
2017-11-04T01:43:57.115Z,0
2017-11-04T01:44:58.535Z,0
2017-11-04T01:45:59.951Z,0
2017-11-04T01:47:01.368Z,0
2017-11-04T01:48:02.785Z,0
2017-11-04T01:49:04.199Z,0
2017-11-04T01:50:05.621Z,0
2017-11-04T01:51:07.033Z,0
2017-11-04T01:52:08.451Z,0
2017-11-04T01:53:09.867Z,0
2017-11-04T01:54:11.281Z,0
2017-11-04T01:55:12.698Z,0
2017-11-04T01:56:14.112Z,0
2017-11-04T01:57:15.533Z,0
2017-11-04T01:58:16.940Z,0
2017-11-04T01:59:18.357Z,0
2017-11-04T02:00:19.775Z,0
2017-11-04T02:01:21.188Z,0
2017-11-04T02:02:22.605Z,0
2017-11-04T02:03:24.020Z,0
2017-11-04T02:04:25.452Z,0
2017-11-04T02:05:26.866Z,0
2017-11-04T02:06:28.282Z,0
2017-11-04T02:07:29.698Z,0
2017-11-04T02:08:31.114Z,0
2017-11-04T02:09:32.530Z,0
2017-11-04T02:10:33.946Z,0
2017-11-04T02:11:35.359Z,0
2017-11-04T02:12:36.774Z,0
2017-11-04T02:13:38.195Z,0
2017-11-04T02:14:39.609Z,0
2017-11-04T02:15:41.135Z,0
2017-11-04T02:16:42.549Z,0
2017-11-04T02:17:43.968Z,0
2017-11-04T02:18:45.385Z,0
2017-11-04T02:19:46.801Z,0
2017-11-04T02:20:48.258Z,0
2017-11-04T02:21:49.674Z,0
2017-11-04T02:22:51.089Z,0
2017-11-04T02:23:52.504Z,0
2017-11-04T02:24:53.922Z,0
2017-11-04T02:25:55.337Z,0
2017-11-04T02:26:56.752Z,0
2017-11-04T02:27:58.169Z,0
2017-11-04T02:28:59.584Z,0
2017-11-04T02:30:00.999Z,0
2017-11-04T02:31:02.451Z,0
2017-11-04T02:32:03.863Z,0
2017-11-04T02:33:05.287Z,0
2017-11-04T02:34:06.700Z,0
2017-11-04T02:35:08.115Z,0
2017-11-04T02:36:09.531Z,0
2017-11-04T02:37:10.951Z,0
2017-11-04T02:38:12.372Z,0
2017-11-04T02:39:13.784Z,0
2017-11-04T02:40:15.200Z,0
2017-11-04T02:41:16.619Z,0
2017-11-04T02:42:18.036Z,0
2017-11-04T02:43:19.451Z,0
2017-11-04T02:44:20.867Z,0
2017-11-04T02:45:22.289Z,0
2017-11-04T02:46:23.705Z,0
2017-11-04T02:47:25.120Z,0
2017-11-04T02:48:26.538Z,0
2017-11-04T02:49:27.951Z,0
2017-11-04T02:50:29.369Z,0
2017-11-04T02:51:30.780Z,0
2017-11-04T02:52:32.194Z,0
2017-11-04T02:53:33.608Z,0
2017-11-04T02:54:35.025Z,0
2017-11-04T02:55:36.438Z,0
2017-11-04T02:56:37.853Z,0
2017-11-04T02:57:39.269Z,0
2017-11-04T02:58:40.684Z,0
2017-11-04T02:59:42.098Z,0
2017-11-04T03:00:43.514Z,0
2017-11-04T03:01:44.928Z,0
2017-11-04T03:02:46.344Z,0
2017-11-04T03:03:47.760Z,0
2017-11-04T03:04:49.176Z,0
2017-11-04T03:05:50.593Z,0
2017-11-04T03:06:52.010Z,0
2017-11-04T03:07:53.427Z,0
2017-11-04T03:08:54.840Z,0
2017-11-04T03:09:56.255Z,0
2017-11-04T03:10:57.673Z,0
2017-11-04T03:11:59.087Z,0
2017-11-04T03:13:00.522Z,0
2017-11-04T03:14:01.917Z,0
2017-11-04T03:15:03.334Z,0
2017-11-04T03:16:04.749Z,0
2017-11-04T03:17:06.158Z,0
2017-11-04T03:18:07.581Z,0
2017-11-04T03:19:08.994Z,0
2017-11-04T03:20:10.409Z,0
2017-11-04T03:21:11.827Z,0
2017-11-04T03:22:13.239Z,0
2017-11-04T03:23:14.655Z,0
2017-11-04T03:24:16.070Z,0
2017-11-04T03:25:17.483Z,0
2017-11-04T03:26:18.898Z,0
2017-11-04T03:27:20.313Z,0
2017-11-04T03:28:21.738Z,0
2017-11-04T03:29:23.144Z,0
2017-11-04T03:30:24.560Z,0
2017-11-04T03:31:25.975Z,0
2017-11-04T03:32:27.486Z,0
2017-11-04T03:33:28.893Z,0
2017-11-04T03:34:30.307Z,0
2017-11-04T03:35:31.737Z,0
2017-11-04T03:36:33.153Z,0
2017-11-04T03:37:34.570Z,0
2017-11-04T03:38:35.982Z,0
2017-11-04T03:39:37.402Z,0
2017-11-04T03:40:38.814Z,0
2017-11-04T03:41:40.236Z,0
2017-11-04T03:42:41.653Z,0
2017-11-04T03:43:43.065Z,0
2017-11-04T03:44:44.481Z,0
2017-11-04T03:45:45.896Z,0
2017-11-04T03:46:47.311Z,0
2017-11-04T03:47:48.727Z,0
2017-11-04T03:48:50.156Z,0
2017-11-04T03:49:51.565Z,0
2017-11-04T03:50:52.980Z,0
2017-11-04T03:51:54.424Z,0
2017-11-04T03:52:55.842Z,0
2017-11-04T03:53:57.261Z,0
2017-11-04T03:54:58.674Z,0
2017-11-04T03:56:00.089Z,0
2017-11-04T03:57:01.506Z,0
2017-11-04T03:58:02.917Z,0
2017-11-04T03:59:04.333Z,0
2017-11-04T04:00:05.747Z,0
2017-11-04T04:01:07.174Z,0
2017-11-04T04:02:08.592Z,0
2017-11-04T04:03:10.021Z,0
2017-11-04T04:04:11.434Z,0
2017-11-04T04:05:12.851Z,0
2017-11-04T04:06:14.268Z,0
2017-11-04T04:07:15.685Z,0
2017-11-04T04:08:17.100Z,0
2017-11-04T04:09:18.515Z,0
2017-11-04T04:10:19.930Z,0
2017-11-04T04:11:21.346Z,0
2017-11-04T04:12:22.760Z,0
2017-11-04T04:13:24.175Z,0
2017-11-04T04:14:25.592Z,0
2017-11-04T04:15:27.009Z,0
2017-11-04T04:16:28.426Z,0
2017-11-04T04:17:29.839Z,0
2017-11-04T04:18:31.251Z,0
2017-11-04T04:19:32.668Z,0
2017-11-04T04:20:34.079Z,0
2017-11-04T04:21:35.495Z,0
2017-11-04T04:22:36.911Z,0
2017-11-04T04:23:38.353Z,0
2017-11-04T04:24:39.768Z,0
2017-11-04T04:25:41.191Z,0
2017-11-04T04:26:42.598Z,0
2017-11-04T04:27:44.022Z,0
2017-11-04T04:28:45.432Z,0
2017-11-04T04:29:46.848Z,0
2017-11-04T04:30:48.267Z,0
2017-11-04T04:31:49.676Z,0
2017-11-04T04:32:51.090Z,0
2017-11-04T04:33:52.504Z,0
2017-11-04T04:34:53.917Z,0
2017-11-04T04:35:55.334Z,0
2017-11-04T04:36:56.745Z,0
2017-11-04T04:37:58.160Z,0
2017-11-04T04:38:59.576Z,0
2017-11-04T04:40:00.992Z,0
2017-11-04T04:41:02.404Z,0
2017-11-04T04:42:03.819Z,0
2017-11-04T04:43:05.234Z,0
2017-11-04T04:44:06.647Z,0
2017-11-04T04:45:08.068Z,0
2017-11-04T04:46:09.487Z,0
2017-11-04T04:47:10.902Z,0
2017-11-04T04:48:12.317Z,0
2017-11-04T04:49:13.732Z,0
2017-11-04T04:50:15.150Z,0
2017-11-04T04:51:16.566Z,0
2017-11-04T04:52:17.981Z,0
2017-11-04T04:53:19.393Z,0
2017-11-04T04:54:20.817Z,0
2017-11-04T04:55:22.233Z,0
2017-11-04T04:56:23.647Z,0
2017-11-04T04:57:25.061Z,0
2017-11-04T04:58:26.476Z,0
2017-11-04T04:59:27.896Z,0
2017-11-04T05:00:29.313Z,0
2017-11-04T05:01:30.727Z,0
2017-11-04T05:02:32.143Z,0
2017-11-04T05:03:33.559Z,0
2017-11-04T05:04:34.977Z,0
2017-11-04T05:05:36.397Z,0
2017-11-04T05:06:37.807Z,0
2017-11-04T05:07:39.223Z,0
2017-11-04T05:08:40.640Z,0
2017-11-04T05:09:42.051Z,0
2017-11-04T05:10:43.465Z,0
2017-11-04T05:11:44.881Z,0
2017-11-04T05:12:46.294Z,0
2017-11-04T05:13:47.710Z,0
2017-11-04T05:14:49.219Z,0
2017-11-04T05:15:50.638Z,0
2017-11-04T05:16:52.052Z,0
2017-11-04T05:17:53.489Z,0
2017-11-04T05:18:54.879Z,0
2017-11-04T05:19:56.295Z,0
2017-11-04T05:20:57.711Z,0
2017-11-04T05:21:59.129Z,0
2017-11-04T05:23:00.553Z,0
2017-11-04T05:24:01.961Z,0
2017-11-04T05:25:03.379Z,0
2017-11-04T05:26:04.793Z,0
2017-11-04T05:27:06.213Z,0
2017-11-04T05:28:07.624Z,0
2017-11-04T05:29:09.039Z,0
2017-11-04T05:30:10.452Z,0
2017-11-04T05:31:11.863Z,0
2017-11-04T05:32:13.280Z,0
2017-11-04T05:33:14.699Z,0
2017-11-04T05:34:16.112Z,0
2017-11-04T05:35:17.526Z,0
2017-11-04T05:36:18.941Z,0
2017-11-04T05:37:20.359Z,0
2017-11-04T05:38:21.772Z,0
2017-11-04T05:39:23.187Z,0
2017-11-04T05:40:24.601Z,0
2017-11-04T05:41:26.013Z,0
2017-11-04T05:42:27.426Z,0
2017-11-04T05:43:28.841Z,0
2017-11-04T05:44:30.258Z,0
2017-11-04T05:45:31.669Z,0
2017-11-04T05:46:33.083Z,0
2017-11-04T05:47:34.497Z,0
2017-11-04T05:48:35.914Z,0
2017-11-04T05:49:37.332Z,0
2017-11-04T05:50:38.745Z,0
2017-11-04T05:51:40.160Z,0
2017-11-04T05:52:41.577Z,0
2017-11-04T05:53:42.991Z,0
2017-11-04T05:54:44.405Z,0
2017-11-04T05:55:45.825Z,0
2017-11-04T05:56:47.238Z,0
2017-11-04T05:57:48.653Z,0
2017-11-04T05:58:50.182Z,0
2017-11-04T05:59:51.596Z,0
2017-11-04T06:00:53.010Z,0
2017-11-04T06:01:54.441Z,0
2017-11-04T06:02:55.856Z,0
2017-11-04T06:03:57.274Z,0
2017-11-04T06:04:58.688Z,0
2017-11-04T06:06:00.103Z,0
2017-11-04T06:07:01.521Z,0
2017-11-04T06:08:02.935Z,0
2017-11-04T06:09:04.351Z,0
2017-11-04T06:10:05.774Z,0
2017-11-04T06:11:07.181Z,0
2017-11-04T06:12:08.593Z,0
2017-11-04T06:13:10.007Z,0
2017-11-04T06:14:11.422Z,0
2017-11-04T06:15:12.837Z,0
2017-11-04T06:16:14.250Z,0
2017-11-04T06:17:15.665Z,0
2017-11-04T06:18:17.076Z,0
2017-11-04T06:19:18.491Z,0
2017-11-04T06:20:19.907Z,0
2017-11-04T06:21:21.342Z,0
2017-11-04T06:22:22.741Z,0
2017-11-04T06:23:24.154Z,0
2017-11-04T06:24:25.568Z,0
2017-11-04T06:25:26.985Z,0
2017-11-04T06:26:28.403Z,0
2017-11-04T06:27:29.819Z,0
2017-11-04T06:28:31.234Z,0
2017-11-04T06:29:32.652Z,0
2017-11-04T06:30:34.065Z,0
2017-11-04T06:31:35.480Z,0
2017-11-04T06:32:36.897Z,0
2017-11-04T06:33:38.314Z,0
2017-11-04T06:34:39.730Z,4
2017-11-04T06:35:41.151Z,4
2017-11-04T06:36:42.561Z,4
2017-11-04T06:37:43.975Z,4
2017-11-04T06:38:45.389Z,4
2017-11-04T06:39:46.805Z,0
2017-11-04T06:40:48.217Z,4
2017-11-04T06:41:49.634Z,4
2017-11-04T06:42:51.048Z,4
2017-11-04T06:43:52.464Z,4
2017-11-04T06:44:53.878Z,4
2017-11-04T06:45:55.322Z,8
2017-11-04T06:46:56.731Z,8
2017-11-04T06:47:58.144Z,4
2017-11-04T06:48:59.558Z,8
2017-11-04T06:50:00.978Z,8
2017-11-04T06:51:02.392Z,8
2017-11-04T06:52:03.808Z,8
2017-11-04T06:53:05.221Z,8
2017-11-04T06:54:06.672Z,8
2017-11-04T06:55:08.089Z,12
2017-11-04T06:56:09.504Z,12
2017-11-04T06:57:10.928Z,12
2017-11-04T06:58:12.339Z,8
2017-11-04T06:59:13.755Z,8
2017-11-04T07:00:15.171Z,8
2017-11-04T07:01:16.583Z,12
2017-11-04T07:02:17.999Z,12
2017-11-04T07:03:19.418Z,12
2017-11-04T07:04:20.838Z,12
2017-11-04T07:05:22.278Z,12
2017-11-04T07:06:23.694Z,12
2017-11-04T07:07:25.109Z,12
2017-11-04T07:08:26.529Z,12
2017-11-04T07:09:27.946Z,12
2017-11-04T07:10:29.366Z,16
2017-11-04T07:11:30.779Z,16
2017-11-04T07:12:32.197Z,16
2017-11-04T07:13:33.611Z,16
2017-11-04T07:14:35.026Z,16
2017-11-04T07:15:36.443Z,16
2017-11-04T07:16:37.864Z,16
2017-11-04T07:17:39.279Z,16
2017-11-04T07:18:40.695Z,16
2017-11-04T07:19:42.115Z,16
2017-11-04T07:20:43.531Z,16
2017-11-04T07:21:44.944Z,16
2017-11-04T07:22:46.359Z,12
2017-11-04T07:23:47.779Z,12
2017-11-04T07:24:49.194Z,16
2017-11-04T07:25:50.613Z,16
2017-11-04T07:26:52.032Z,16
2017-11-04T07:27:53.478Z,16
2017-11-04T07:28:54.876Z,12
2017-11-04T07:29:56.297Z,12
2017-11-04T07:30:57.713Z,12
2017-11-04T07:31:59.128Z,16
2017-11-04T07:33:00.546Z,16
2017-11-04T07:34:01.967Z,16
2017-11-04T07:35:03.384Z,16
2017-11-04T07:36:04.797Z,16
2017-11-04T07:37:06.214Z,16
2017-11-04T07:38:07.636Z,20
2017-11-04T07:39:09.050Z,20
2017-11-04T07:40:10.471Z,20
2017-11-04T07:41:11.887Z,20
2017-11-04T07:42:13.334Z,20
2017-11-04T07:43:14.758Z,20
2017-11-04T07:44:16.178Z,20
2017-11-04T07:45:17.593Z,20
2017-11-04T07:46:19.010Z,20
2017-11-04T07:47:20.426Z,20
2017-11-04T07:48:21.848Z,20
2017-11-04T07:49:23.263Z,20
2017-11-04T07:50:24.683Z,20
2017-11-04T07:51:26.100Z,20
2017-11-04T07:52:27.519Z,20
2017-11-04T07:53:28.936Z,24
2017-11-04T07:54:30.353Z,24
2017-11-04T07:55:31.769Z,24
2017-11-04T07:56:33.188Z,28
2017-11-04T07:57:34.606Z,32
2017-11-04T07:58:36.023Z,32
2017-11-04T07:59:37.443Z,32
2017-11-04T08:00:38.864Z,32
2017-11-04T08:01:40.281Z,28
2017-11-04T08:02:41.701Z,24
2017-11-04T08:03:43.117Z,24
2017-11-04T08:04:44.533Z,28
2017-11-04T08:05:45.951Z,28
2017-11-04T08:06:47.376Z,32
2017-11-04T08:07:48.793Z,28
2017-11-04T08:08:50.233Z,32
2017-11-04T08:09:51.651Z,32
2017-11-04T08:10:53.068Z,32
2017-11-04T08:11:54.490Z,32
2017-11-04T08:12:55.909Z,36
2017-11-04T08:13:57.327Z,36
2017-11-04T08:14:58.744Z,36
2017-11-04T08:16:00.165Z,32
2017-11-04T08:17:01.604Z,36
2017-11-04T08:18:03.002Z,32
2017-11-04T08:19:04.424Z,36
2017-11-04T08:20:05.875Z,40
2017-11-04T08:21:07.290Z,40
2017-11-04T08:22:08.711Z,40
2017-11-04T08:23:10.131Z,40
2017-11-04T08:24:11.551Z,36
2017-11-04T08:25:12.981Z,36
2017-11-04T08:26:14.400Z,36
2017-11-04T08:27:15.816Z,36
2017-11-04T08:28:17.234Z,40
2017-11-04T08:29:18.652Z,40
2017-11-04T08:30:20.071Z,44
2017-11-04T08:31:21.490Z,44
2017-11-04T08:32:22.911Z,44
2017-11-04T08:33:24.323Z,44
2017-11-04T08:34:25.764Z,48
2017-11-04T08:35:27.165Z,48
2017-11-04T08:36:28.586Z,44
2017-11-04T08:37:30.004Z,44
2017-11-04T08:38:31.490Z,48
2017-11-04T08:39:32.909Z,48
2017-11-04T08:40:34.327Z,48
2017-11-04T08:41:35.746Z,48
2017-11-04T08:42:37.178Z,48
2017-11-04T08:43:38.597Z,48
2017-11-04T08:44:40.016Z,48
2017-11-04T08:45:41.434Z,48
2017-11-04T08:46:42.852Z,48
2017-11-04T08:47:44.272Z,48
2017-11-04T08:48:45.695Z,48
2017-11-04T08:49:47.128Z,48
2017-11-04T08:50:48.547Z,48
2017-11-04T08:51:49.964Z,52
2017-11-04T08:52:51.428Z,52
2017-11-04T08:53:52.844Z,56
2017-11-04T08:54:54.263Z,56
2017-11-04T08:55:55.695Z,56
2017-11-04T08:56:57.115Z,56
2017-11-04T08:57:58.536Z,60
2017-11-04T08:59:00.011Z,64
2017-11-04T09:00:01.431Z,64
2017-11-04T09:01:02.847Z,60
2017-11-04T09:02:04.266Z,64
2017-11-04T09:03:05.686Z,68
2017-11-04T09:04:07.104Z,68
2017-11-04T09:05:08.522Z,68
2017-11-04T09:06:09.946Z,72
2017-11-04T09:07:11.358Z,72
2017-11-04T09:08:12.778Z,60
2017-11-04T09:09:14.199Z,72
2017-11-04T09:10:15.627Z,92
2017-11-04T09:11:17.063Z,92
2017-11-04T09:12:18.475Z,96
2017-11-04T09:13:19.897Z,96
2017-11-04T09:14:21.316Z,88
2017-11-04T09:15:22.739Z,84
2017-11-04T09:16:24.160Z,80
2017-11-04T09:17:25.578Z,84
2017-11-04T09:18:26.998Z,92
2017-11-04T09:19:28.414Z,88
2017-11-04T09:20:29.831Z,76
2017-11-04T09:21:31.251Z,88
2017-11-04T09:22:32.669Z,76
2017-11-04T09:23:34.088Z,72
2017-11-04T09:24:35.515Z,84
2017-11-04T09:25:36.936Z,64
2017-11-04T09:26:38.354Z,60
2017-11-04T09:27:39.777Z,52
2017-11-04T09:28:41.191Z,48
2017-11-04T09:29:42.622Z,44
2017-11-04T09:30:44.035Z,44
2017-11-04T09:31:45.452Z,44
2017-11-04T09:32:46.869Z,44
2017-11-04T09:33:48.291Z,44
2017-11-04T09:34:49.705Z,44
2017-11-04T09:35:51.130Z,52
2017-11-04T09:36:52.547Z,52
2017-11-04T09:37:53.997Z,60
2017-11-04T09:38:55.412Z,64
2017-11-04T09:39:56.839Z,72
2017-11-04T09:40:58.255Z,76
2017-11-04T09:41:59.673Z,76
2017-11-04T09:43:01.095Z,72
2017-11-04T09:44:02.518Z,68
2017-11-04T09:45:03.935Z,68
2017-11-04T09:46:05.351Z,72
2017-11-04T09:47:06.773Z,88
2017-11-04T09:48:08.202Z,76
2017-11-04T09:49:09.621Z,84
2017-11-04T09:50:11.047Z,72
2017-11-04T09:51:12.459Z,60
2017-11-04T09:52:13.879Z,68
2017-11-04T09:53:15.298Z,52
2017-11-04T09:54:16.744Z,88
2017-11-04T09:55:18.164Z,88
2017-11-04T09:56:19.587Z,92
2017-11-04T09:57:21.004Z,72
2017-11-04T09:58:22.421Z,72
2017-11-04T09:59:23.858Z,56
2017-11-04T10:00:25.258Z,52
2017-11-04T10:01:26.677Z,52
2017-11-04T10:02:28.095Z,64
2017-11-04T10:03:29.513Z,72
2017-11-04T10:04:30.934Z,72
2017-11-04T10:05:32.354Z,120
2017-11-04T10:06:33.777Z,124
2017-11-04T10:07:35.200Z,116
2017-11-04T10:08:36.626Z,112
2017-11-04T10:09:38.043Z,120
2017-11-04T10:10:39.461Z,96
2017-11-04T10:11:40.882Z,116
2017-11-04T10:12:42.301Z,112
2017-11-04T10:13:43.723Z,108
2017-11-04T10:14:45.144Z,108
2017-11-04T10:15:46.563Z,96
2017-11-04T10:16:47.986Z,116
2017-11-04T10:17:49.410Z,100
2017-11-04T10:18:50.830Z,88
2017-11-04T10:19:52.247Z,92
2017-11-04T10:20:53.671Z,96
2017-11-04T10:21:55.096Z,96
2017-11-04T10:22:56.514Z,96
2017-11-04T10:23:57.933Z,64
2017-11-04T10:24:59.353Z,56
2017-11-04T10:26:00.840Z,68
2017-11-04T10:27:02.260Z,64
2017-11-04T10:28:03.787Z,68
2017-11-04T10:29:05.207Z,80
2017-11-04T10:30:06.627Z,96
2017-11-04T10:31:08.050Z,116
2017-11-04T10:32:09.474Z,108
2017-11-04T10:33:10.895Z,104
2017-11-04T10:34:12.315Z,100
2017-11-04T10:35:13.731Z,100
2017-11-04T10:36:15.155Z,92
2017-11-04T10:37:16.578Z,88
2017-11-04T10:38:17.996Z,88
2017-11-04T10:39:19.420Z,84
2017-11-04T10:40:20.890Z,80
2017-11-04T10:41:22.311Z,76
2017-11-04T10:42:23.737Z,76
2017-11-04T10:43:25.156Z,76
2017-11-04T10:44:26.577Z,72
2017-11-04T10:45:27.993Z,64
2017-11-04T10:46:29.413Z,60
2017-11-04T10:47:30.841Z,56
2017-11-04T10:48:32.259Z,60
2017-11-04T10:49:33.679Z,60
2017-11-04T10:50:35.100Z,68
2017-11-04T10:51:36.519Z,76
2017-11-04T10:52:37.938Z,84
2017-11-04T10:53:39.357Z,88
2017-11-04T10:54:40.781Z,92
2017-11-04T10:55:42.196Z,88
2017-11-04T10:56:43.616Z,80
2017-11-04T10:57:45.035Z,80
2017-11-04T10:58:46.458Z,84
2017-11-04T10:59:47.878Z,92
2017-11-04T11:00:49.301Z,96
2017-11-04T11:01:50.716Z,100
2017-11-04T11:02:52.231Z,100
2017-11-04T11:03:53.648Z,100
2017-11-04T11:04:55.068Z,92
2017-11-04T11:05:56.488Z,88
2017-11-04T11:06:57.915Z,84
2017-11-04T11:07:59.333Z,80
2017-11-04T11:09:00.759Z,84
2017-11-04T11:10:02.300Z,84
2017-11-04T11:11:03.729Z,84
2017-11-04T11:12:05.144Z,80
2017-11-04T11:13:06.561Z,76
2017-11-04T11:14:07.980Z,80
2017-11-04T11:15:09.399Z,88
2017-11-04T11:16:10.825Z,92
2017-11-04T11:17:12.242Z,104
2017-11-04T11:18:13.661Z,108
2017-11-04T11:19:15.101Z,108
2017-11-04T11:20:16.523Z,104
2017-11-04T11:21:17.945Z,108
2017-11-04T11:22:19.367Z,92
2017-11-04T11:23:20.788Z,84
2017-11-04T11:24:22.207Z,84
2017-11-04T11:25:23.626Z,84
2017-11-04T11:26:25.043Z,68
2017-11-04T11:27:26.464Z,60
2017-11-04T11:28:27.883Z,56
2017-11-04T11:29:29.304Z,60
2017-11-04T11:30:30.728Z,60
2017-11-04T11:31:32.148Z,60
2017-11-04T11:32:33.568Z,60
2017-11-04T11:33:34.987Z,60
2017-11-04T11:34:36.407Z,60
2017-11-04T11:35:37.829Z,64
2017-11-04T11:36:39.247Z,60
2017-11-04T11:37:40.667Z,68
2017-11-04T11:38:42.086Z,64
2017-11-04T11:39:43.506Z,64
2017-11-04T11:40:44.929Z,64
2017-11-04T11:41:46.345Z,68
2017-11-04T11:42:47.767Z,72
2017-11-04T11:43:49.214Z,68
2017-11-04T11:44:50.635Z,64
2017-11-04T11:45:52.055Z,72
2017-11-04T11:46:53.476Z,76
2017-11-04T11:47:54.900Z,80
2017-11-04T11:48:56.321Z,84
2017-11-04T11:49:57.750Z,84
2017-11-04T11:50:59.158Z,76
2017-11-04T11:52:00.579Z,60
2017-11-04T11:53:01.999Z,60
2017-11-04T11:54:03.421Z,64
2017-11-04T11:55:04.839Z,60
2017-11-04T11:56:06.255Z,60
2017-11-04T11:57:07.670Z,60
2017-11-04T11:58:09.097Z,64
2017-11-04T11:59:10.509Z,64
2017-11-04T12:00:11.963Z,64
2017-11-04T12:01:13.408Z,64
2017-11-04T12:02:14.827Z,64
2017-11-04T12:03:16.244Z,68
2017-11-04T12:04:17.665Z,68
2017-11-04T12:05:19.083Z,76
2017-11-04T12:06:20.503Z,88
2017-11-04T12:07:21.923Z,116
2017-11-04T12:08:23.345Z,120
2017-11-04T12:09:24.764Z,128
2017-11-04T12:10:26.186Z,140
2017-11-04T12:11:27.606Z,144
2017-11-04T12:12:29.030Z,136
2017-11-04T12:13:30.446Z,128
2017-11-04T12:14:31.880Z,124
2017-11-04T12:15:33.293Z,124
2017-11-04T12:16:34.716Z,124
2017-11-04T12:17:36.132Z,124
2017-11-04T12:18:37.551Z,124
2017-11-04T12:19:39.038Z,128
2017-11-04T12:20:40.462Z,132
2017-11-04T12:21:41.894Z,132
2017-11-04T12:22:43.311Z,136
2017-11-04T12:23:44.790Z,136
2017-11-04T12:24:46.212Z,140
2017-11-04T12:25:47.633Z,144
2017-11-04T12:26:49.054Z,148
2017-11-04T12:27:50.474Z,148
2017-11-04T12:28:51.891Z,152
2017-11-04T12:29:53.314Z,156
2017-11-04T12:30:54.737Z,160
2017-11-04T12:31:56.159Z,160
2017-11-04T12:32:57.581Z,164
2017-11-04T12:33:59.004Z,164
2017-11-04T12:35:00.428Z,164
2017-11-04T12:36:01.846Z,164
2017-11-04T12:37:03.264Z,164
2017-11-04T12:38:04.720Z,168
2017-11-04T12:39:06.142Z,164
2017-11-04T12:40:07.562Z,168
2017-11-04T12:41:08.980Z,136
2017-11-04T12:42:10.407Z,96
2017-11-04T12:43:11.831Z,168
2017-11-04T12:44:13.251Z,176
2017-11-04T12:45:14.673Z,180
2017-11-04T12:46:16.091Z,180
2017-11-04T12:47:17.513Z,184
2017-11-04T12:48:18.933Z,184
2017-11-04T12:49:20.354Z,180
2017-11-04T12:50:21.792Z,180
2017-11-04T12:51:23.213Z,176
2017-11-04T12:52:24.629Z,172
2017-11-04T12:53:26.051Z,172
2017-11-04T12:54:27.473Z,172
2017-11-04T12:55:28.894Z,168
2017-11-04T12:56:30.314Z,168
2017-11-04T12:57:31.737Z,164
2017-11-04T12:58:33.162Z,168
2017-11-04T12:59:34.578Z,168
2017-11-04T13:00:36.002Z,160
2017-11-04T13:01:37.428Z,164
2017-11-04T13:02:38.844Z,160
2017-11-04T13:03:40.265Z,160
2017-11-04T13:04:41.690Z,160
2017-11-04T13:05:43.105Z,156
2017-11-04T13:06:44.531Z,156
2017-11-04T13:07:45.952Z,156
2017-11-04T13:08:47.373Z,156
2017-11-04T13:09:48.797Z,152
2017-11-04T13:10:50.219Z,160
2017-11-04T13:11:51.642Z,160
2017-11-04T13:12:53.170Z,156
2017-11-04T13:13:54.588Z,156
2017-11-04T13:14:56.006Z,156
2017-11-04T13:15:57.432Z,156
2017-11-04T13:16:58.854Z,156
2017-11-04T13:18:00.275Z,164
2017-11-04T13:19:01.698Z,164
2017-11-04T13:20:03.129Z,168
2017-11-04T13:21:04.542Z,164
2017-11-04T13:22:05.962Z,164
2017-11-04T13:23:07.383Z,164
2017-11-04T13:24:08.802Z,164
2017-11-04T13:25:10.224Z,164
2017-11-04T13:26:11.644Z,164
2017-11-04T13:27:13.065Z,160
2017-11-04T13:28:14.492Z,172
2017-11-04T13:29:15.914Z,176
2017-11-04T13:30:17.333Z,180
2017-11-04T13:31:18.755Z,180
2017-11-04T13:32:20.178Z,180
2017-11-04T13:33:21.598Z,180
2017-11-04T13:34:23.019Z,180
2017-11-04T13:35:24.493Z,180
2017-11-04T13:36:25.915Z,180
2017-11-04T13:37:27.337Z,176
2017-11-04T13:38:28.761Z,180
2017-11-04T13:39:30.183Z,180
2017-11-04T13:40:31.604Z,180
2017-11-04T13:41:33.027Z,188
2017-11-04T13:42:34.489Z,196
2017-11-04T13:43:35.912Z,200
2017-11-04T13:44:37.332Z,192
2017-11-04T13:45:38.758Z,184
2017-11-04T13:46:40.182Z,180
2017-11-04T13:47:41.603Z,180
2017-11-04T13:48:43.025Z,180
2017-11-04T13:49:44.448Z,192
2017-11-04T13:50:45.871Z,204
2017-11-04T13:51:47.292Z,216
2017-11-04T13:52:48.711Z,216
2017-11-04T13:53:50.139Z,212
2017-11-04T13:54:51.561Z,212
2017-11-04T13:55:52.983Z,212
2017-11-04T13:56:54.408Z,212
2017-11-04T13:57:55.830Z,208
2017-11-04T13:58:57.252Z,208
2017-11-04T13:59:58.676Z,208
2017-11-04T14:01:00.100Z,208
2017-11-04T14:02:01.520Z,208
2017-11-04T14:03:02.940Z,208
2017-11-04T14:04:04.366Z,208
2017-11-04T14:05:05.786Z,208
2017-11-04T14:06:07.211Z,212
2017-11-04T14:07:08.636Z,208
2017-11-04T14:08:10.055Z,212
2017-11-04T14:09:11.476Z,208
2017-11-04T14:10:12.899Z,204
2017-11-04T14:11:14.320Z,160
2017-11-04T14:12:15.742Z,196
2017-11-04T14:13:17.162Z,192
2017-11-04T14:14:18.588Z,188
2017-11-04T14:15:20.005Z,184
2017-11-04T14:16:21.429Z,184
2017-11-04T14:17:22.852Z,184
2017-11-04T14:18:24.287Z,180
2017-11-04T14:19:25.716Z,176
2017-11-04T14:20:27.144Z,176
2017-11-04T14:21:28.568Z,172
2017-11-04T14:22:29.993Z,168
2017-11-04T14:23:31.413Z,164
2017-11-04T14:24:32.835Z,172
2017-11-04T14:25:34.257Z,168
2017-11-04T14:26:35.679Z,168
2017-11-04T14:27:37.103Z,168
2017-11-04T14:28:38.526Z,168
2017-11-04T14:29:39.948Z,168
2017-11-04T14:30:41.366Z,168
2017-11-04T14:31:42.806Z,168
2017-11-04T14:32:44.222Z,164
2017-11-04T14:33:45.638Z,164
2017-11-04T14:34:47.064Z,164
2017-11-04T14:35:48.515Z,160
2017-11-04T14:36:49.931Z,156
2017-11-04T14:37:51.357Z,152
2017-11-04T14:38:52.777Z,152
2017-11-04T14:39:54.274Z,148
2017-11-04T14:40:55.695Z,64
2017-11-04T14:41:57.118Z,132
2017-11-04T14:42:58.541Z,132
2017-11-04T14:43:59.965Z,104